Time;durP1;ratioP1;P1;durP2;ratioP2;P2;SDS_P1;SDS_P2;PMS_P1;PMS_P2;Temp;Humidity;BMP_temperature;BMP_pressure;BME280_temperature;BME280_humidity;BME280_pressure;Samples;Min_cycle;Max_cycle;Signal;HPM_P1;HPM_P2
2022/03/20 00:00:31;;;;;;;30.50;19.05;;;;;;;-8.93;63.83;100731.34;4956098;29;20075;-79
2022/03/20 00:02:57;;;;;;;40.28;20.45;;;;;;;-8.98;63.31;100728.69;4940657;29;20098;-80
2022/03/20 00:05:23;;;;;;;35.13;20.65;;;;;;;-8.97;63.66;100730.41;4972741;28;20055;-79
2022/03/20 00:07:50;;;;;;;33.17;18.30;;;;;;;-8.94;63.40;100719.25;4956353;29;20043;-78
2022/03/20 00:10:16;;;;;;;31.27;20.25;;;;;;;-8.96;63.30;100711.44;4957519;29;20080;-79
2022/03/20 00:12:43;;;;;;;34.72;19.45;;;;;;;-9.00;63.55;100719.97;4955451;28;20499;-78
2022/03/20 00:15:09;;;;;;;36.67;20.60;;;;;;;-9.10;63.70;100711.16;4956329;29;20039;-79
2022/03/20 00:17:36;;;;;;;30.73;18.17;;;;;;;-9.13;63.94;100713.69;4957342;29;20427;-79
2022/03/20 00:20:04;;;;;;;31.08;18.88;;;;;;;-9.18;64.06;100715.28;4957450;29;20058;-80
2022/03/20 00:22:30;;;;;;;26.75;14.23;;;;;;;-9.22;64.56;100713.47;4940102;29;20150;-80
2022/03/20 00:24:57;;;;;;;31.05;18.90;;;;;;;-9.27;64.58;100715.09;4924470;29;20043;-80
2022/03/20 00:27:23;;;;;;;34.15;18.77;;;;;;;-9.21;64.55;100710.06;4939866;29;20106;-79
2022/03/20 00:29:50;;;;;;;29.45;15.93;;;;;;;-9.24;64.47;100701.34;4939999;29;20051;-81
2022/03/20 00:32:19;;;;;;;26.20;16.45;;;;;;;-9.34;64.95;100703.72;4955970;29;20057;-80
2022/03/20 00:34:46;;;;;;;32.15;16.90;;;;;;;-9.29;64.79;100696.03;4957005;29;20054;-80
2022/03/20 00:37:12;;;;;;;30.60;16.27;;;;;;;-9.25;64.90;100679.75;4957054;29;20154;-78
2022/03/20 00:39:38;;;;;;;20.27;12.52;;;;;;;-9.16;64.72;100689.44;4971779;28;20198;-80
2022/03/20 00:42:04;;;;;;;31.27;16.50;;;;;;;-9.17;64.62;100665.25;4956996;29;20043;-79
2022/03/20 00:44:31;;;;;;;26.50;17.77;;;;;;;-9.16;64.44;100672.16;4924752;29;20093;-80
2022/03/20 00:46:57;;;;;;;26.65;16.63;;;;;;;-9.19;64.22;100666.06;4957832;29;20055;-79
2022/03/20 00:49:23;;;;;;;32.10;18.90;;;;;;;-9.15;64.25;100666.13;4972907;28;20053;-78
2022/03/20 00:51:49;;;;;;;33.92;19.08;;;;;;;-9.21;64.25;100667.72;4971909;28;20047;-79
2022/03/20 00:54:15;;;;;;;32.65;19.80;;;;;;;-9.22;64.30;100669.44;4956690;29;20074;-78
2022/03/20 00:56:40;;;;;;;37.92;20.88;;;;;;;-9.24;64.69;100671.13;4955636;29;20043;-79
2022/03/20 00:59:07;;;;;;;30.77;18.55;;;;;;;-9.23;64.57;100670.28;4972221;28;20466;-81
2022/03/20 01:01:33;;;;;;;36.47;21.13;;;;;;;-9.23;64.69;100665.13;4940172;29;20039;-79
2022/03/20 01:03:59;;;;;;;34.63;19.65;;;;;;;-9.23;64.49;100672.00;4955908;29;20051;-80
2022/03/20 01:06:25;;;;;;;38.88;21.67;;;;;;;-9.23;64.49;100664.25;4939402;29;20066;-81
2022/03/20 01:08:51;;;;;;;35.92;21.55;;;;;;;-9.30;64.43;100637.34;4956321;29;20055;-80
2022/03/20 01:11:17;;;;;;;40.13;23.00;;;;;;;-9.20;64.04;100653.97;4955092;29;20043;-81
2022/03/20 01:13:43;;;;;;;39.47;21.50;;;;;;;-9.23;64.16;100626.28;4955212;29;20051;-80
2022/03/20 01:16:10;;;;;;;40.72;22.05;;;;;;;-9.23;64.29;100622.81;4956156;29;20187;-79
2022/03/20 01:18:36;;;;;;;37.95;21.13;;;;;;;-9.25;64.04;100635.75;4939095;29;20130;-79
2022/03/20 01:21:02;;;;;;;36.78;20.30;;;;;;;-9.32;64.14;100623.50;4956150;29;20039;-80
2022/03/20 01:23:29;;;;;;;40.47;21.17;;;;;;;-9.41;64.60;100631.06;4967496;28;20126;-81
2022/03/20 01:25:55;;;;;;;41.85;21.55;;;;;;;-9.48;64.68;100631.78;4967072;28;20063;-81
2022/03/20 01:28:26;;;;;;;37.08;23.58;;;;;;;-9.44;64.64;100625.81;4937125;29;20130;-82
2022/03/20 01:30:55;;;;;;;48.13;23.77;;;;;;;-9.44;64.77;100623.22;4935776;29;20098;-81
2022/03/20 01:33:21;;;;;;;41.57;23.37;;;;;;;-9.39;64.47;100621.63;4935812;29;20040;-80
2022/03/20 01:35:47;;;;;;;41.08;22.48;;;;;;;-9.43;64.83;100619.81;4967869;28;20048;-81
2022/03/20 01:38:19;;;;;;;46.75;23.25;;;;;;;-9.48;64.68;100611.06;4967289;28;20500;-79
2022/03/20 01:40:49;;;;;;;42.42;24.67;;;;;;;-9.47;64.61;100608.53;4935506;29;20134;-81
2022/03/20 01:43:16;;;;;;;41.38;24.52;;;;;;;-9.49;64.54;100604.16;4936277;29;20044;-79
2022/03/20 01:45:43;;;;;;;50.15;24.00;;;;;;;-9.53;64.62;100600.63;4935586;29;20043;-80
2022/03/20 01:48:09;;;;;;;43.63;25.85;;;;;;;-9.59;64.94;100593.63;4967696;28;20075;-80
2022/03/20 01:50:35;;;;;;;45.05;26.25;;;;;;;-9.70;65.25;100595.09;4938116;29;20039;-80
2022/03/20 01:53:02;;;;;;;42.47;26.00;;;;;;;-9.68;65.04;100583.06;4945561;29;20040;-81
2022/03/20 01:55:28;;;;;;;39.55;22.92;;;;;;;-9.62;65.30;100596.13;4941610;29;20051;-79
2022/03/20 01:57:56;;;;;;;42.63;22.88;;;;;;;-9.65;65.08;100577.06;4917025;29;20051;-79
2022/03/20 02:00:25;;;;;;;43.88;23.67;;;;;;;-9.64;64.83;100587.44;4948853;29;20040;-79
2022/03/20 02:02:51;;;;;;;44.50;23.23;;;;;;;-9.75;65.10;100596.69;4964525;29;20425;-79
2022/03/20 02:05:18;;;;;;;44.97;23.40;;;;;;;-9.71;65.03;100601.09;4947405;29;20059;-79
2022/03/20 02:07:44;;;;;;;55.05;23.38;;;;;;;-9.79;64.94;100589.72;4951878;29;20064;-79
2022/03/20 02:10:11;;;;;;;50.33;24.80;;;;;;;-9.71;65.08;100571.75;4961432;29;20127;-80
2022/03/20 02:12:39;;;;;;;37.25;23.95;;;;;;;-9.66;65.00;100580.50;4964804;29;20047;-80
2022/03/20 02:15:07;;;;;;;47.53;23.75;;;;;;;-9.65;64.96;100593.47;4932599;29;20146;-80
2022/03/20 02:17:35;;;;;;;44.20;25.80;;;;;;;-9.65;64.92;100601.25;4918620;29;20445;-81
2022/03/20 02:20:03;;;;;;;195.40;36.40;;;;;;;-9.64;65.30;100592.63;4932798;29;20351;-82
2022/03/20 02:22:31;;;;;;;51.43;25.73;;;;;;;-9.60;65.14;100586.66;4932426;29;20146;-81
2022/03/20 02:24:56;;;;;;;52.47;25.48;;;;;;;-9.54;65.05;100586.81;4917752;29;20146;-81
2022/03/20 02:27:25;;;;;;;43.47;26.08;;;;;;;-9.52;65.02;100562.66;4917822;29;20143;-79
2022/03/20 02:29:52;;;;;;;38.92;22.67;;;;;;;-9.49;64.98;100567.91;4918029;29;20062;-81
2022/03/20 02:32:23;;;;;;;63.53;27.27;;;;;;;-9.49;65.06;100563.59;4948615;29;20052;-81
2022/03/20 02:34:50;;;;;;;46.67;26.73;;;;;;;-9.51;64.66;100548.88;4948011;29;20401;-81
2022/03/20 02:37:23;;;;;;;43.13;24.08;;;;;;;-9.61;64.56;100572.00;4947538;29;20047;-80
2022/03/20 02:39:51;;;;;;;45.53;26.95;;;;;;;-9.60;64.49;100563.38;4931414;29;20048;-80
2022/03/20 02:42:17;;;;;;;49.90;28.08;;;;;;;-9.58;64.65;100563.44;4916901;29;20119;-82
2022/03/20 02:45:03;;;;;;;54.85;29.25;;;;;;;-9.66;64.41;100545.16;4931317;29;20044;-80
2022/03/20 02:47:35;;;;;;;40.58;24.35;;;;;;;-9.57;64.52;100555.69;4948055;29;20416;-79
2022/03/20 02:50:07;;;;;;;75.88;27.35;;;;;;;-9.72;64.54;100555.38;4947287;29;20412;-79
2022/03/20 02:52:39;;;;;;;48.85;25.80;;;;;;;-9.73;64.50;100538.09;4947588;28;20103;-81
2022/03/20 02:55:05;;;;;;;44.72;27.25;;;;;;;-9.74;64.75;100548.41;4931779;29;20044;-80
2022/03/20 02:57:32;;;;;;;52.92;29.23;;;;;;;-9.65;64.74;100552.06;4916568;29;20420;-81
2022/03/20 03:00:00;;;;;;;52.40;29.10;;;;;;;-9.72;64.92;100560.53;4947409;29;20045;-81
2022/03/20 03:02:30;;;;;;;45.90;27.17;;;;;;;-9.56;65.14;100547.06;4916469;29;20055;-81
2022/03/20 03:04:59;;;;;;;47.72;27.35;;;;;;;-9.47;64.92;100545.53;4916741;29;20052;-80
2022/03/20 03:07:30;;;;;;;53.58;29.25;;;;;;;-9.49;64.24;100536.84;4915448;29;20100;-80
2022/03/20 03:12:41;;;;;;;47.63;27.90;;;;;;;-9.46;64.57;100550.72;4939003;29;20063;-80
2022/03/20 03:15:19;;;;;;;50.88;27.77;;;;;;;-9.37;63.96;100555.19;4917208;29;20135;-79
2022/03/20 03:17:49;;;;;;;51.22;28.73;;;;;;;-9.23;64.16;100540.81;4947183;29;20055;-79
2022/03/20 03:20:19;;;;;;;60.70;29.17;;;;;;;-9.16;64.05;100553.03;4931086;29;20044;-81
2022/03/20 03:22:46;;;;;;;50.50;28.63;;;;;;;-9.10;63.62;100555.75;4916589;29;20064;-80
2022/03/20 03:25:12;;;;;;;48.13;26.35;;;;;;;-9.05;63.49;100553.25;4915267;29;20052;-79
2022/03/20 03:27:37;;;;;;;79.45;30.02;;;;;;;-8.96;63.47;100539.56;4931104;29;20510;-79
2022/03/20 03:30:04;;;;;;;47.22;25.75;;;;;;;-8.99;63.18;100521.38;4884029;29;20044;-79
2022/03/20 03:32:31;;;;;;;51.88;28.20;;;;;;;-8.83;62.92;100524.28;4916601;29;20571;-79
2022/03/20 03:37:42;;;;;;;36.00;19.67;;;;;;;-8.81;62.54;100519.09;4915346;29;20078;-81
2022/03/20 03:40:09;;;;;;;47.22;21.05;;;;;;;-8.93;62.67;100490.41;4899482;29;20052;-80
2022/03/20 03:42:36;;;;;;;39.78;21.88;;;;;;;-8.72;62.64;100511.50;4916649;29;20134;-80
2022/03/20 03:45:05;;;;;;;39.20;21.80;;;;;;;-8.62;62.34;100505.59;4916191;29;20051;-80
2022/03/20 03:47:31;;;;;;;32.72;17.33;;;;;;;-8.70;61.86;100486.47;4930818;29;20046;-81
2022/03/20 03:49:57;;;;;;;21.85;13.38;;;;;;;-8.65;61.54;100505.56;4902692;29;20044;-80
2022/03/20 03:52:23;;;;;;;45.58;20.35;;;;;;;-8.77;61.75;100495.00;4934449;29;20590;-79
2022/03/20 03:54:49;;;;;;;44.88;22.95;;;;;;;-8.64;61.95;100499.53;4919903;29;20044;-80
2022/03/20 03:57:19;;;;;;;38.55;21.65;;;;;;;-8.46;61.75;100479.91;4937304;29;20091;-80
2022/03/20 03:59:45;;;;;;;40.83;19.85;;;;;;;-8.33;61.72;100494.78;4921296;29;20048;-81
2022/03/20 04:02:12;;;;;;;32.67;18.25;;;;;;;-8.36;60.91;100500.78;4937239;29;20143;-82
2022/03/20 04:04:39;;;;;;;45.30;21.35;;;;;;;-8.40;61.10;100490.38;4921276;29;20104;-79
2022/03/20 04:07:04;;;;;;;45.50;20.52;;;;;;;-8.34;60.70;100490.47;4938547;29;20040;-81
2022/03/20 04:09:31;;;;;;;34.00;20.42;;;;;;;-8.33;61.09;100487.88;4937402;29;20531;-80
2022/03/20 04:11:58;;;;;;;37.40;21.45;;;;;;;-8.33;61.04;100477.50;4921566;29;20052;-79
2022/03/20 04:14:24;;;;;;;39.88;19.92;;;;;;;-8.24;60.95;100463.78;4938573;29;20138;-80
2022/03/20 04:16:54;;;;;;;44.05;22.27;;;;;;;-8.18;60.79;100476.84;4938562;29;20107;-80
2022/03/20 04:19:20;;;;;;;34.45;20.13;;;;;;;-8.13;61.04;100475.16;4936767;29;20401;-81
2022/03/20 04:21:48;;;;;;;36.08;19.25;;;;;;;-7.97;60.73;100470.19;4953365;29;20050;-79
2022/03/20 04:24:14;;;;;;;26.15;15.50;;;;;;;-7.94;60.03;100476.28;4955164;29;20051;-77
2022/03/20 04:26:40;;;;;;;30.75;18.08;;;;;;;-7.86;60.40;100479.88;4924147;29;20043;-79
2022/03/20 04:29:06;;;;;;;31.27;17.25;;;;;;;-7.82;60.47;100479.06;4939730;29;20190;-79
2022/03/20 04:31:32;;;;;;;34.67;16.55;;;;;;;-7.87;60.24;100466.88;4957078;29;20043;-80
2022/03/20 04:33:58;;;;;;;36.40;19.05;;;;;;;-7.73;60.07;100473.09;4940896;29;20074;-85
2022/03/20 04:36:26;;;;;;;45.05;20.42;;;;;;;-7.64;59.85;100474.91;4940642;29;20499;-80
2022/03/20 04:38:54;;;;;;;57.38;19.35;;;;;;;-7.58;59.77;100460.28;4957530;29;20102;-82
2022/03/20 04:41:21;;;;;;;39.67;21.48;;;;;;;-7.02;65.53;100459.13;4925679;29;20051;-76
2022/03/20 04:43:49;;;;;;;41.20;22.60;;;;;;;-6.60;60.77;100450.78;4958303;29;20046;-87
2022/03/20 04:46:15;;;;;;;40.72;20.70;;;;;;;-6.55;58.14;100440.41;4956198;29;20047;-88
2022/03/20 04:59:39;;;;;;;23.38;13.45;;;;;;;-6.99;58.02;100446.16;4954776;28;20094;-81
2022/03/20 05:02:05;;;;;;;38.30;21.05;;;;;;;-6.87;57.89;100435.00;4939178;29;20125;-84
2022/03/20 05:04:30;;;;;;;37.35;20.48;;;;;;;-6.76;57.85;100435.09;4941241;29;20557;-87
2022/03/20 05:06:57;;;;;;;45.38;23.65;;;;;;;-6.67;57.44;100437.75;4955652;29;20046;-83
2022/03/20 05:14:52;;;;;;;45.10;23.95;;;;;;;-6.26;56.60;100421.53;4959020;29;20051;-83
2022/03/20 05:17:17;;;;;;;49.28;25.92;;;;;;;-6.25;56.15;100421.53;4953995;29;20059;-86
2022/03/20 05:19:44;;;;;;;46.78;22.08;;;;;;;-6.27;56.29;100417.19;4930718;29;20487;-83
2022/03/20 05:22:10;;;;;;;40.95;21.73;;;;;;;-6.27;56.38;100418.06;4936946;28;20050;-78
2022/03/20 05:24:38;;;;;;;43.13;23.33;;;;;;;-6.24;55.82;100397.25;4935343;29;20044;-84
2022/03/20 05:27:05;;;;;;;35.00;20.00;;;;;;;-6.11;56.09;100379.97;4920759;29;20048;-88
2022/03/20 05:29:32;;;;;;;39.05;19.63;;;;;;;-5.90;55.72;100376.53;4903994;29;20047;-79
2022/03/20 05:31:58;;;;;;;36.83;16.85;;;;;;;-5.92;55.50;100373.09;4937243;29;20051;-81
2022/03/20 05:34:24;;;;;;;30.98;18.75;;;;;;;-6.00;55.68;100380.00;4919759;29;20094;-78
2022/03/20 05:36:51;;;;;;;33.78;20.88;;;;;;;-5.96;55.83;100366.13;4951247;29;20043;-83
2022/03/20 05:39:17;;;;;;;34.75;20.33;;;;;;;-5.77;55.37;100362.66;4919074;29;20082;-83
2022/03/20 05:41:50;;;;;;;27.63;16.30;;;;;;;-5.50;55.01;100366.19;4951647;29;20058;-80
2022/03/20 05:44:18;;;;;;;27.88;16.88;;;;;;;-5.36;55.13;100374.91;4921367;29;20048;-81
2022/03/20 05:46:51;;;;;;;31.23;16.13;;;;;;;-5.27;54.04;100371.44;4908770;29;20043;-80
2022/03/20 05:49:22;;;;;;;30.42;15.73;;;;;;;-5.21;53.84;100368.84;4914052;29;20107;-78
2022/03/20 05:51:50;;;;;;;28.45;16.67;;;;;;;-5.08;53.83;100374.91;4936369;29;20050;-80
2022/03/20 05:55:08;;;;;;;31.27;17.25;;;;;;;-5.10;53.63;100366.25;4916773;29;20468;-82
2022/03/20 06:00:24;;;;;;;27.58;17.30;;;;;;;-5.05;53.46;100369.69;4931726;29;20043;-82
2022/03/20 06:02:50;;;;;;;25.70;13.95;;;;;;;-5.07;53.17;100374.06;4916326;29;20842;-81
2022/03/20 06:05:20;;;;;;;24.88;14.88;;;;;;;-4.94;53.15;100373.16;4948546;29;20055;-82
2022/03/20 06:07:49;;;;;;;23.63;14.05;;;;;;;-4.74;53.18;100349.66;4915867;29;20049;-80
2022/03/20 06:10:19;;;;;;;21.35;13.23;;;;;;;-4.58;52.69;100355.75;4900985;29;20060;-82
2022/03/20 06:12:46;;;;;;;24.63;13.07;;;;;;;-4.46;52.97;100366.13;4948576;29;20043;-84
2022/03/20 06:15:32;;;;;;;24.00;14.35;;;;;;;-4.43;52.74;100353.09;4918533;29;20063;-82
2022/03/20 06:18:06;;;;;;;30.02;16.02;;;;;;;-4.36;52.15;100352.19;4932401;29;20447;-81
2022/03/20 06:20:35;;;;;;;49.03;23.88;;;;;;;-4.37;52.42;100355.66;4906959;29;20047;-82
2022/03/20 06:23:01;;;;;;;44.13;22.63;;;;;;;-4.24;52.48;100354.75;4925943;29;20161;-80
2022/03/20 06:25:27;;;;;;;55.72;26.42;;;;;;;-4.27;52.46;100351.28;4953003;29;20082;-88
2022/03/20 06:27:56;;;;;;;31.10;17.35;;;;;;;-4.27;51.51;100340.84;4952860;29;20619;-82
2022/03/20 06:30:22;;;;;;;29.48;18.42;;;;;;;-3.97;51.04;100350.28;4953007;28;20047;-82
2022/03/20 06:32:49;;;;;;;44.05;20.23;;;;;;;-4.02;51.16;100352.06;4953005;29;20455;-80
2022/03/20 06:35:19;;;;;;;27.77;16.88;;;;;;;-3.95;51.25;100332.84;4952694;29;20171;-81
2022/03/20 06:37:45;;;;;;;;;;;;;;;-3.82;50.67;100331.94;4921061;29;20078;-81
2022/03/20 06:40:14;;;;;;;24.55;13.98;;;;;;;-3.78;51.18;100320.56;4952126;29;19922;-83
2022/03/20 06:42:40;;;;;;;20.80;13.57;;;;;;;-3.64;50.64;100322.25;4952691;29;20075;-80
2022/03/20 06:45:08;;;;;;;19.60;12.88;;;;;;;-3.49;50.64;100322.13;4920575;29;20458;-83
2022/03/20 06:47:36;;;;;;;26.88;13.13;;;;;;;-3.55;50.39;100309.09;4916741;29;20052;-81
2022/03/20 06:50:03;;;;;;;20.20;12.63;;;;;;;-3.52;49.91;100306.47;4946952;29;20476;-87
2022/03/20 06:52:30;;;;;;;27.33;10.85;;;;;;;-3.60;50.24;100305.66;4917545;29;20089;-81
2022/03/20 06:54:57;;;;;;;22.20;12.02;;;;;;;-3.54;49.67;100306.47;4917331;29;20412;-89
2022/03/20 06:57:25;;;;;;;17.92;11.02;;;;;;;-3.40;49.90;100298.53;4947663;29;20523;-83
2022/03/20 06:59:53;;;;;;;15.23;9.43;;;;;;;-3.30;49.81;100287.13;4931615;29;20047;-81
2022/03/20 07:02:21;;;;;;;18.93;11.13;;;;;;;-3.07;50.25;100283.44;4930710;29;20040;-80
2022/03/20 07:04:48;;;;;;;19.63;10.70;;;;;;;-2.95;49.09;100280.69;4915057;29;20692;-78
2022/03/20 07:07:19;;;;;;;15.80;10.57;;;;;;;-3.21;49.64;100262.63;4923315;29;20035;-79
2022/03/20 07:09:45;;;;;;;16.33;9.15;;;;;;;-3.19;49.30;100274.81;4916862;29;20045;-79
2022/03/20 07:12:12;;;;;;;26.92;11.50;;;;;;;-2.99;49.42;100255.44;4946854;29;20056;-81
2022/03/20 07:14:39;;;;;;;17.45;11.32;;;;;;;-2.95;49.25;100272.84;4935523;29;20045;-82
2022/03/20 07:17:09;;;;;;;17.40;9.30;;;;;;;-2.89;49.35;100266.69;4932946;29;20043;-80
2022/03/20 07:19:37;;;;;;;16.13;9.95;;;;;;;-2.96;48.95;100253.66;4949610;28;20519;-79
2022/03/20 07:22:05;;;;;;;16.92;9.07;;;;;;;-2.64;48.52;100252.44;4916790;28;20503;-79
2022/03/20 07:24:33;;;;;;;17.48;9.50;;;;;;;-2.76;48.54;100242.97;4921339;29;20055;-80
2022/03/20 07:29:44;;;;;;;20.23;10.88;;;;;;;-2.40;47.72;100230.34;4937520;29;20055;-80
2022/03/20 07:32:10;;;;;;;17.58;12.10;;;;;;;-2.12;47.88;100229.94;4938168;29;20044;-81
2022/03/20 07:34:39;;;;;;;15.45;10.35;;;;;;;-2.01;47.72;100222.81;4936605;29;20055;-79
2022/03/20 07:37:06;;;;;;;17.98;11.88;;;;;;;-2.15;47.29;100216.91;4938118;29;20047;-79
2022/03/20 07:39:35;;;;;;;27.98;12.23;;;;;;;-1.87;47.44;100205.13;4938418;29;20057;-76
2022/03/20 07:42:02;;;;;;;20.02;12.65;;;;;;;-1.52;47.31;100206.31;4921263;29;20047;-80
2022/03/20 07:44:31;;;;;;;17.55;11.27;;;;;;;-1.33;46.76;100191.97;4939292;29;20059;-83
2022/03/20 07:46:58;;;;;;;;;;;;;;;-1.18;45.67;100196.06;4896968;29;20449;-78
2022/03/20 07:49:23;;;;;;;18.33;10.82;;;;;;;-1.01;45.53;100198.41;4917996;29;19919;-75
2022/03/20 07:51:50;;;;;;;15.00;10.55;;;;;;;-0.91;45.37;100188.56;4901204;29;20404;-78
2022/03/20 07:54:16;;;;;;;20.33;12.90;;;;;;;-0.78;45.51;100190.94;4933380;29;20146;-80
2022/03/20 07:56:42;;;;;;;26.17;13.20;;;;;;;-0.73;45.58;100189.06;4934245;29;20099;-77
2022/03/20 07:59:09;;;;;;;19.88;13.02;;;;;;;-0.52;44.67;100177.25;4919066;29;20083;-78
2022/03/20 08:01:36;;;;;;;24.52;13.65;;;;;;;-0.43;44.59;100178.81;4917433;29;20040;-77
2022/03/20 08:04:04;;;;;;;20.65;11.50;;;;;;;-0.09;43.73;100180.69;4917419;29;20139;-76
2022/03/20 08:06:30;;;;;;;22.98;12.55;;;;;;;0.14;43.96;100165.22;4918098;29;20130;-78
2022/03/20 08:08:59;;;;;;;17.75;10.20;;;;;;;0.29;43.75;100165.75;4917499;29;20080;-78
2022/03/20 08:11:29;;;;;;;18.02;11.15;;;;;;;0.55;43.29;100162.47;4917299;29;20087;-79
2022/03/20 08:13:57;;;;;;;19.50;10.90;;;;;;;1.09;43.02;100162.75;4901568;29;20447;-78
2022/03/20 08:16:26;;;;;;;17.08;10.07;;;;;;;1.45;42.54;100162.59;4918439;29;20048;-77
2022/03/20 08:18:53;;;;;;;17.08;10.57;;;;;;;1.72;41.85;100160.03;4906676;29;20420;-78
2022/03/20 08:21:19;;;;;;;15.63;9.73;;;;;;;1.76;41.03;100151.97;4918043;29;20112;-77
2022/03/20 08:23:46;;;;;;;14.43;9.63;;;;;;;2.07;40.29;100143.97;4915854;29;20059;-80
2022/03/20 08:26:12;;;;;;;13.70;9.57;;;;;;;2.02;40.32;100137.97;4920066;29;20087;-78
2022/03/20 08:28:42;;;;;;;13.27;9.18;;;;;;;1.88;39.95;100124.34;4952012;29;20051;-79
2022/03/20 08:31:09;;;;;;;18.73;9.73;;;;;;;1.60;40.76;100119.09;4937613;29;20042;-81
2022/03/20 08:33:36;;;;;;;14.65;9.95;;;;;;;2.01;40.12;100140.66;4951725;29;20055;-77
2022/03/20 08:36:04;;;;;;;14.25;9.40;;;;;;;2.02;40.09;100137.97;4935241;29;20052;-81
2022/03/20 08:38:30;;;;;;;12.52;8.63;;;;;;;2.25;39.63;100131.06;4967980;28;20463;-80
2022/03/20 08:40:56;;;;;;;12.20;8.40;;;;;;;2.00;39.78;100136.31;4968330;28;20051;-77
2022/03/20 08:43:22;;;;;;;25.77;10.60;;;;;;;1.56;40.87;100128.88;4937080;29;20055;-78
2022/03/20 08:45:49;;;;;;;26.35;11.13;;;;;;;1.63;41.52;100116.38;4939523;29;20050;-78
2022/03/20 08:48:15;;;;;;;26.70;13.88;;;;;;;1.41;41.78;100124.06;4935891;29;20524;-80
2022/03/20 08:50:44;;;;;;;15.02;9.65;;;;;;;1.32;41.62;100111.19;4935561;29;20078;-81
2022/03/20 08:53:10;;;;;;;16.85;9.65;;;;;;;1.49;41.21;100100.97;4935870;29;20554;-78
2022/03/20 08:55:36;;;;;;;16.50;10.40;;;;;;;1.60;41.53;100092.75;4951788;29;20134;-78
2022/03/20 08:58:04;;;;;;;18.45;10.20;;;;;;;1.75;41.19;100091.41;4936836;29;20186;-79
2022/03/20 09:00:32;;;;;;;18.52;10.35;;;;;;;1.77;40.65;100082.56;4921373;29;20138;-80
2022/03/20 09:02:57;;;;;;;17.38;10.73;;;;;;;1.62;41.58;100083.91;4959351;28;20051;-77
2022/03/20 09:05:23;;;;;;;19.27;11.18;;;;;;;1.49;41.48;100077.28;4951820;29;20052;-81
2022/03/20 09:07:50;;;;;;;17.02;10.00;;;;;;;1.56;41.73;100070.91;4935588;29;20488;-79
2022/03/20 09:10:17;;;;;;;18.17;10.07;;;;;;;1.89;41.17;100071.59;4936517;29;20416;-83
2022/03/20 09:12:44;;;;;;;26.98;10.80;;;;;;;2.06;41.05;100062.25;4936408;29;20051;-77
2022/03/20 09:15:13;;;;;;;15.35;9.48;;;;;;;2.22;40.82;100071.38;4936701;29;20050;-79
2022/03/20 09:20:28;;;;;;;15.70;9.55;;;;;;;2.42;40.03;100046.94;4934644;29;20066;-79
2022/03/20 09:22:55;;;;;;;16.63;10.95;;;;;;;2.05;40.47;100040.31;4947810;29;20114;-78
2022/03/20 09:25:21;;;;;;;16.33;10.77;;;;;;;2.14;40.94;100032.09;4917765;29;20048;-79
2022/03/20 09:27:48;;;;;;;20.35;11.52;;;;;;;2.25;41.02;100013.22;4917697;29;20050;-79
2022/03/20 09:30:18;;;;;;;16.95;11.20;;;;;;;2.34;41.46;100027.88;4947636;29;20048;-83
2022/03/20 09:32:44;;;;;;;19.85;11.13;;;;;;;2.78;40.49;100013.06;4948200;29;20492;-84
2022/03/20 09:35:11;;;;;;;15.52;11.18;;;;;;;3.48;39.84;100014.75;4931377;29;20040;-83
2022/03/20 09:37:38;;;;;;;16.38;10.73;;;;;;;3.96;38.97;100018.94;4948448;29;20052;-85
2022/03/20 09:40:06;;;;;;;20.05;10.80;;;;;;;4.11;38.18;100009.50;4936027;29;20048;-77
2022/03/20 09:42:34;;;;;;;40.70;11.38;;;;;;;3.85;38.03;100007.97;4938825;29;20076;-80
2022/03/20 09:45:01;;;;;;;16.23;10.30;;;;;;;3.81;38.31;100001.94;4919876;29;20100;-80
2022/03/20 09:47:28;;;;;;;30.60;11.80;;;;;;;3.98;38.49;99989.78;4916544;29;20048;-80
2022/03/20 09:49:58;;;;;;;19.73;11.07;;;;;;;4.06;38.17;100001.78;4948243;29;20052;-79
2022/03/20 09:52:23;;;;;;;17.50;11.88;;;;;;;3.90;38.23;99996.25;4948397;28;20055;-79
2022/03/20 09:54:50;;;;;;;18.92;11.35;;;;;;;3.56;38.65;99980.94;4917354;29;20048;-79
2022/03/20 09:57:16;;;;;;;16.77;11.85;;;;;;;3.75;39.57;99999.53;4932021;29;20048;-78
2022/03/20 09:59:42;;;;;;;19.50;11.05;;;;;;;3.62;38.76;99985.97;4915373;29;20056;-80
2022/03/20 10:02:12;;;;;;;16.77;11.00;;;;;;;3.39;39.07;99971.06;4947706;29;20512;-80
2022/03/20 10:04:57;;;;;;;16.42;11.63;;;;;;;3.70;39.16;99976.88;4931585;29;20056;-79
2022/03/20 10:07:26;;;;;;;19.88;11.50;;;;;;;3.93;38.61;99979.41;4931807;29;20127;-79
2022/03/20 10:10:10;;;;;;;25.42;11.38;;;;;;;4.06;38.88;99977.06;4931559;29;20044;-78
2022/03/20 10:12:41;;;;;;;17.42;10.70;;;;;;;4.03;38.26;99967.50;4947438;29;20127;-78
2022/03/20 10:15:09;;;;;;;20.23;11.70;;;;;;;4.19;39.01;99958.91;4947886;29;20640;-79
2022/03/20 10:17:37;;;;;;;25.17;10.75;;;;;;;4.41;37.93;99954.38;4931688;29;20048;-79
2022/03/20 10:20:18;;;;;;;20.65;10.45;;;;;;;4.25;37.32;99943.63;4947327;29;20050;-80
2022/03/20 10:22:45;;;;;;;15.30;10.82;;;;;;;4.23;37.71;99944.59;4918788;29;20060;-78
2022/03/20 10:25:12;;;;;;;15.68;10.75;;;;;;;4.28;37.95;99934.66;4930920;29;20511;-78
2022/03/20 10:27:39;;;;;;;25.48;11.43;;;;;;;4.15;38.22;99947.59;4916562;29;20048;-76
2022/03/20 10:30:09;;;;;;;17.35;11.70;;;;;;;3.65;38.63;99938.28;4915475;29;20044;-79
2022/03/20 10:32:36;;;;;;;26.42;12.43;;;;;;;3.48;39.00;99931.97;4916021;29;20048;-78
2022/03/20 10:35:09;;;;;;;15.57;11.05;;;;;;;3.11;39.52;99921.09;4916444;29;20385;-81
2022/03/20 10:37:55;;;;;;;18.30;11.27;;;;;;;3.05;40.10;99931.94;4931940;29;20048;-77
2022/03/20 10:40:26;;;;;;;23.27;11.60;;;;;;;3.08;40.51;99918.56;4931991;29;20103;-79
2022/03/20 10:43:09;;;;;;;30.40;14.52;;;;;;;3.33;40.61;99904.38;4933068;29;20076;-80
2022/03/20 10:45:56;;;;;;;16.67;11.60;;;;;;;3.91;39.81;99904.53;4916025;29;20050;-78
2022/03/20 10:48:30;;;;;;;17.85;12.00;;;;;;;4.07;39.64;99908.25;4899730;29;20051;-81
2022/03/20 10:50:57;;;;;;;19.77;12.15;;;;;;;4.20;38.97;99907.69;4932241;29;20091;-78
2022/03/20 10:53:23;;;;;;;17.05;11.50;;;;;;;4.16;39.15;99900.81;4915621;29;20051;-78
2022/03/20 10:55:55;;;;;;;24.42;11.95;;;;;;;3.68;39.44;99909.97;4916477;29;20147;-79
2022/03/20 10:58:26;;;;;;;21.27;11.80;;;;;;;3.39;40.05;99912.94;4917937;29;20412;-78
2022/03/20 11:00:53;;;;;;;20.83;11.02;;;;;;;2.95;42.29;99904.16;4903019;29;20138;-82
2022/03/20 11:03:22;;;;;;;18.05;12.88;;;;;;;2.75;41.70;99890.91;4918349;29;20134;-80
2022/03/20 11:05:49;;;;;;;23.25;12.00;;;;;;;2.67;42.11;99899.97;4919060;29;20048;-80
2022/03/20 11:08:19;;;;;;;18.23;12.25;;;;;;;2.92;41.84;99888.44;4919276;29;20184;-79
2022/03/20 11:10:48;;;;;;;17.40;11.25;;;;;;;2.99;41.61;99891.69;4919066;29;20099;-80
2022/03/20 11:13:17;;;;;;;24.52;11.88;;;;;;;2.90;41.98;99877.94;4918818;29;20467;-82
2022/03/20 11:15:44;;;;;;;20.20;11.98;;;;;;;3.09;41.45;99891.25;4896014;29;20059;-84
2022/03/20 11:18:14;;;;;;;20.52;11.27;;;;;;;3.16;41.54;99890.09;4934406;29;20059;-85
2022/03/20 11:20:45;;;;;;;18.42;10.90;;;;;;;3.21;41.39;99883.75;4922389;29;20039;-81
2022/03/20 11:23:17;;;;;;;19.92;12.60;;;;;;;3.56;40.91;99880.47;4938744;29;20063;-82
2022/03/20 11:25:45;;;;;;;29.17;10.63;;;;;;;3.84;43.25;99882.81;4954264;29;20118;-81
2022/03/20 11:28:15;;;;;;;14.98;10.52;;;;;;;4.08;39.55;99883.50;4922543;29;20044;-88
2022/03/20 11:30:45;;;;;;;19.50;11.27;;;;;;;3.95;39.56;99886.75;4920164;29;20051;-78
2022/03/20 11:33:14;;;;;;;25.02;11.40;;;;;;;4.55;39.31;99869.00;4920140;29;20500;-81
2022/03/20 11:35:41;;;;;;;16.63;11.35;;;;;;;4.73;41.35;99869.94;4950265;29;20047;-82
2022/03/20 11:38:17;;;;;;;29.20;12.65;;;;;;;4.90;38.32;99872.66;4950929;29;20060;-89
2022/03/20 11:41:11;;;;;;;32.42;13.10;;;;;;;4.72;38.50;99854.97;4966780;29;20059;-89
2022/03/20 11:43:44;;;;;;;31.58;13.98;;;;;;;4.52;39.21;99848.84;4967192;29;20112;-86
2022/03/20 11:46:18;;;;;;;24.83;14.38;;;;;;;4.12;39.70;99847.19;4939096;29;20106;-85
2022/03/20 11:48:45;;;;;;;20.95;13.00;;;;;;;3.86;39.95;99843.91;4954112;29;20051;-82